createdAt,value
2023-04-10T00:00:21.713Z,9.90
2023-04-10T00:02:49.616Z,9.15
2023-04-10T00:05:16.667Z,8.57
2023-04-10T00:07:43.934Z,8.63
2023-04-10T00:10:11.107Z,8.88
2023-04-10T00:12:38.195Z,7.82
2023-04-10T00:15:05.503Z,7.93
2023-04-10T00:17:32.271Z,7.57
2023-04-10T00:20:00.020Z,8.20
2023-04-10T00:22:29.657Z,7.75
2023-04-10T00:24:56.385Z,7.30
2023-04-10T00:27:23.255Z,6.93
2023-04-10T00:29:50.065Z,7.70
2023-04-10T00:32:17.025Z,6.97
2023-04-10T00:34:44.019Z,7.45
2023-04-10T00:37:10.768Z,8.35
2023-04-10T00:39:37.562Z,7.80
2023-04-10T00:42:06.872Z,7.30
2023-04-10T00:44:37.384Z,8.13
2023-04-10T00:47:05.281Z,8.45
2023-04-10T00:49:32.285Z,8.52
2023-04-10T00:51:59.037Z,8.32
2023-04-10T00:54:26.212Z,7.30
2023-04-10T00:56:53.919Z,6.93
2023-04-10T00:59:20.890Z,7.85
2023-04-10T01:01:47.688Z,7.60
2023-04-10T01:04:16.565Z,8.98
2023-04-10T01:06:59.756Z,8.27
2023-04-10T01:09:44.817Z,8.70
2023-04-10T01:12:48.604Z,11.23
2023-04-10T01:15:20.478Z,7.57
2023-04-10T01:18:06.241Z,7.82
2023-04-10T01:20:35.182Z,7.90
2023-04-10T01:23:39.939Z,8.30
2023-04-10T01:26:10.778Z,8.27
2023-04-10T01:29:00.705Z,7.65
2023-04-10T01:31:30.864Z,7.65
2023-04-10T01:34:00.958Z,7.80
2023-04-10T01:36:31.428Z,22.48
2023-04-10T01:38:58.155Z,8.50
2023-04-10T01:41:26.379Z,10.27
2023-04-10T01:43:53.542Z,9.10
2023-04-10T01:46:21.174Z,9.18
2023-04-10T01:48:47.979Z,8.95
2023-04-10T01:51:15.868Z,8.52
2023-04-10T01:53:43.820Z,7.57
2023-04-10T01:56:10.833Z,8.30
2023-04-10T01:58:37.656Z,7.63
2023-04-10T02:01:04.633Z,7.75
2023-04-10T02:03:31.576Z,8.10
2023-04-10T02:06:26.645Z,7.88
2023-04-10T02:08:57.227Z,7.95
2023-04-10T02:11:44.550Z,8.45
2023-04-10T02:14:12.020Z,7.35
2023-04-10T02:16:38.840Z,7.20
2023-04-10T02:19:05.877Z,7.55
2023-04-10T02:21:33.945Z,8.27
2023-04-10T02:24:00.913Z,7.68
2023-04-10T02:26:27.816Z,8.07
2023-04-10T02:28:54.782Z,8.75
2023-04-10T02:31:21.673Z,7.38
2023-04-10T02:33:48.572Z,7.43
2023-04-10T02:36:15.468Z,7.90
2023-04-10T02:38:42.878Z,7.28
2023-04-10T02:41:09.795Z,8.32
2023-04-10T02:43:36.576Z,8.35
2023-04-10T02:46:03.461Z,7.70
2023-04-10T02:48:30.467Z,8.32
2023-04-10T02:51:00.500Z,7.25
2023-04-10T02:53:27.356Z,7.25
2023-04-10T02:55:55.081Z,7.47
2023-04-10T02:58:24.656Z,8.02
2023-04-10T03:00:51.878Z,7.28
2023-04-10T03:03:19.491Z,8.18
2023-04-10T03:05:50.004Z,7.45
2023-04-10T03:08:17.632Z,7.78
2023-04-10T03:10:45.267Z,7.55
2023-04-10T03:13:12.069Z,8.00
2023-04-10T03:15:38.875Z,8.25
2023-04-10T03:18:09.391Z,7.65
2023-04-10T03:20:37.215Z,8.02
2023-04-10T03:23:04.382Z,8.70
2023-04-10T03:25:31.870Z,8.43
2023-04-10T03:27:58.683Z,7.93
2023-04-10T03:30:25.840Z,7.47
2023-04-10T03:32:52.570Z,8.57
2023-04-10T03:35:19.436Z,8.52
2023-04-10T03:37:46.375Z,8.02
2023-04-10T03:40:13.369Z,7.97
2023-04-10T03:42:40.244Z,8.23
2023-04-10T03:45:08.187Z,8.52
2023-04-10T03:47:35.289Z,9.20
2023-04-10T03:50:02.123Z,8.00
2023-04-10T03:52:29.036Z,8.10
2023-04-10T03:54:55.833Z,7.60
2023-04-10T03:57:22.667Z,8.18
2023-04-10T03:59:49.462Z,7.53
2023-04-10T04:02:16.335Z,7.43
2023-04-10T04:04:43.434Z,7.00
2023-04-10T04:07:11.340Z,7.90
2023-04-10T04:09:38.099Z,7.43
2023-04-10T04:12:04.916Z,7.10
2023-04-10T04:14:31.876Z,7.28
2023-04-10T04:16:58.719Z,7.65
2023-04-10T04:19:25.680Z,7.13
2023-04-10T04:21:52.647Z,7.93
2023-04-10T04:24:19.491Z,7.60
2023-04-10T04:26:46.802Z,7.40
2023-04-10T04:29:15.076Z,7.93
2023-04-10T04:31:41.917Z,9.23
2023-04-10T04:34:08.801Z,7.80
2023-04-10T04:36:35.576Z,7.63
2023-04-10T04:39:02.317Z,7.85
2023-04-10T04:41:32.620Z,7.53
2023-04-10T04:44:01.360Z,8.80
2023-04-10T04:46:28.398Z,7.47
2023-04-10T04:48:55.500Z,7.75
2023-04-10T04:51:22.318Z,7.85
2023-04-10T04:53:49.138Z,8.43
2023-04-10T04:56:16.009Z,7.60
2023-04-10T04:58:42.865Z,7.95
2023-04-10T05:01:09.772Z,7.95
2023-04-10T05:03:36.784Z,7.60
2023-04-10T05:06:03.735Z,7.95
2023-04-10T05:08:30.807Z,8.40
2023-04-10T05:10:57.721Z,8.20
2023-04-10T05:13:24.437Z,7.85
2023-04-10T05:15:51.293Z,7.80
2023-04-10T05:18:22.005Z,8.93
2023-04-10T05:20:48.954Z,8.10
2023-04-10T05:23:16.697Z,8.43
2023-04-10T05:25:43.557Z,8.88
2023-04-10T05:28:10.576Z,8.43
2023-04-10T05:30:37.322Z,9.00
2023-04-10T05:33:04.527Z,9.27
2023-04-10T05:35:31.362Z,9.65
2023-04-10T05:37:59.140Z,9.20
2023-04-10T05:40:26.398Z,9.48
2023-04-10T05:42:53.174Z,8.77
2023-04-10T05:45:19.969Z,9.32
2023-04-10T05:47:46.963Z,8.75
2023-04-10T05:50:13.851Z,8.90
2023-04-10T05:52:40.591Z,8.90
2023-04-10T05:55:08.220Z,8.93
2023-04-10T05:57:34.976Z,9.00
2023-04-10T06:00:01.846Z,9.75
2023-04-10T06:02:29.055Z,8.98
2023-04-10T06:04:56.253Z,11.77
2023-04-10T06:07:23.005Z,12.82
2023-04-10T06:09:49.915Z,9.60
2023-04-10T06:12:17.319Z,9.27
2023-04-10T06:14:44.047Z,11.07
2023-04-10T06:17:11.466Z,10.27
2023-04-10T06:19:38.196Z,10.40
2023-04-10T06:22:04.946Z,9.00
2023-04-10T06:24:32.324Z,9.98
2023-04-10T06:26:59.140Z,9.30
2023-04-10T06:29:26.040Z,9.75
2023-04-10T06:31:53.478Z,10.02
2023-04-10T06:34:20.602Z,10.48
2023-04-10T06:36:47.400Z,8.70
2023-04-10T06:39:14.315Z,9.02
2023-04-10T06:41:41.281Z,8.73
2023-04-10T06:44:08.011Z,9.32
2023-04-10T06:46:34.923Z,10.63
2023-04-10T06:49:01.882Z,9.43
2023-04-10T06:51:28.818Z,8.90
2023-04-10T06:53:56.118Z,10.85
2023-04-10T06:56:22.868Z,10.20
2023-04-10T06:58:49.602Z,10.75
2023-04-10T07:01:17.940Z,9.93
2023-04-10T07:03:45.063Z,9.73
2023-04-10T07:06:14.058Z,8.30
2023-04-10T07:08:41.305Z,10.10
2023-04-10T07:11:08.265Z,8.90
2023-04-10T07:13:35.876Z,9.07
2023-04-10T07:16:02.858Z,10.57
2023-04-10T07:18:29.610Z,8.00
2023-04-10T07:20:57.183Z,9.55
2023-04-10T07:23:24.022Z,7.30
2023-04-10T07:25:51.806Z,9.55
2023-04-10T07:28:20.826Z,10.20
2023-04-10T07:30:47.758Z,8.18
2023-04-10T07:33:14.869Z,9.77
2023-04-10T07:35:41.915Z,9.55
2023-04-10T07:38:08.828Z,10.98
2023-04-10T07:40:36.231Z,14.65
2023-04-10T07:43:02.962Z,10.90
2023-04-10T07:45:29.973Z,10.30
2023-04-10T07:47:58.568Z,9.75
2023-04-10T07:50:25.511Z,9.65
2023-04-10T07:52:52.425Z,11.18
2023-04-10T07:55:19.308Z,11.40
2023-04-10T07:57:46.738Z,13.48
2023-04-10T08:00:14.211Z,11.02
2023-04-10T08:02:41.398Z,13.88
2023-04-10T08:05:08.737Z,10.98
2023-04-10T08:07:36.595Z,10.55
2023-04-10T08:10:03.792Z,14.60
2023-04-10T08:12:33.101Z,11.32
2023-04-10T08:14:59.891Z,11.55
2023-04-10T08:17:26.861Z,10.77
2023-04-10T08:19:53.596Z,13.40
2023-04-10T08:22:20.561Z,10.43
2023-04-10T08:24:47.331Z,9.52
2023-04-10T08:27:16.257Z,9.23
2023-04-10T08:29:43.400Z,8.95
2023-04-10T08:32:10.317Z,10.77
2023-04-10T08:34:37.040Z,9.98
2023-04-10T08:37:09.182Z,10.55
2023-04-10T08:39:37.441Z,11.48
2023-04-10T08:42:04.461Z,10.82
2023-04-10T08:44:31.183Z,12.45
2023-04-10T08:46:59.456Z,9.48
2023-04-10T08:49:55.189Z,10.10
2023-04-10T08:52:22.908Z,9.95
2023-04-10T08:54:55.308Z,9.35
2023-04-10T08:57:22.691Z,9.88
2023-04-10T08:59:50.026Z,13.43
2023-04-10T09:02:17.029Z,9.57
2023-04-10T09:04:52.071Z,9.55
2023-04-10T09:07:18.975Z,11.02
2023-04-10T09:09:45.813Z,10.73
2023-04-10T09:12:14.292Z,11.80
2023-04-10T09:14:41.635Z,10.77
2023-04-10T09:17:21.282Z,11.57
2023-04-10T09:22:18.568Z,10.00
2023-04-10T09:24:47.087Z,13.90
2023-04-10T09:27:35.332Z,10.57
2023-04-10T09:30:02.522Z,10.55
2023-04-10T09:32:46.770Z,10.75
2023-04-10T09:35:14.622Z,9.60
2023-04-10T09:37:42.604Z,10.35
2023-04-10T09:40:29.864Z,10.57
2023-04-10T09:42:56.967Z,9.98
2023-04-10T09:45:23.740Z,9.25
2023-04-10T09:48:07.250Z,10.20
2023-04-10T09:50:40.148Z,10.63
2023-04-10T09:53:15.139Z,10.68
2023-04-10T09:55:42.271Z,10.23
2023-04-10T09:58:09.527Z,10.05
2023-04-10T10:00:40.982Z,9.52
2023-04-10T10:03:17.744Z,10.23
2023-04-10T10:05:46.460Z,10.00
2023-04-10T10:08:14.364Z,11.17
2023-04-10T10:10:48.849Z,9.70
2023-04-10T10:13:36.644Z,10.60
2023-04-10T10:16:13.438Z,22.95
2023-04-10T10:18:55.050Z,11.95
2023-04-10T10:21:23.358Z,10.32
2023-04-10T10:23:54.120Z,16.85
2023-04-10T10:26:22.038Z,14.05
2023-04-10T10:28:50.044Z,10.13
2023-04-10T10:31:18.411Z,11.55
2023-04-10T10:33:47.152Z,10.18
2023-04-10T10:36:15.307Z,10.73
2023-04-10T10:38:51.301Z,10.37
2023-04-10T10:41:31.178Z,10.80
2023-04-10T10:44:23.642Z,11.15
2023-04-10T10:46:52.425Z,16.92
2023-04-10T10:49:19.409Z,10.13
2023-04-10T10:51:50.463Z,8.90
2023-04-10T10:54:37.607Z,12.82
2023-04-10T10:57:09.357Z,9.10
2023-04-10T10:59:48.369Z,8.35
2023-04-10T11:02:19.231Z,8.30
2023-04-10T11:04:47.352Z,9.50
2023-04-10T11:07:14.626Z,8.50
2023-04-10T11:09:51.160Z,10.48
2023-04-10T11:12:20.611Z,8.10
2023-04-10T11:14:59.929Z,9.70
2023-04-10T11:17:52.204Z,9.45
2023-04-10T11:20:21.022Z,10.02
2023-04-10T11:23:06.916Z,9.40
2023-04-10T11:25:52.722Z,11.70
2023-04-10T11:28:36.181Z,13.98
2023-04-10T11:31:22.800Z,14.90
2023-04-10T11:34:10.794Z,10.98
2023-04-10T11:36:42.827Z,10.85
2023-04-10T11:39:14.683Z,11.02
2023-04-10T11:41:43.019Z,10.40
2023-04-10T11:44:11.403Z,10.43
2023-04-10T11:46:42.464Z,9.90
2023-04-10T11:49:10.003Z,10.23
2023-04-10T11:51:40.382Z,10.43
2023-04-10T11:54:23.535Z,12.18
2023-04-10T11:57:02.580Z,9.68
2023-04-10T11:59:30.000Z,9.18
2023-04-10T12:02:16.631Z,10.73
2023-04-10T12:04:44.351Z,8.82
2023-04-10T12:07:11.729Z,10.05
2023-04-10T12:09:38.648Z,10.73
2023-04-10T12:12:06.424Z,11.23
2023-04-10T12:14:38.341Z,12.10
2023-04-10T12:17:06.737Z,11.35
2023-04-10T12:19:34.095Z,10.43
2023-04-10T12:22:03.078Z,10.25
2023-04-10T12:27:23.063Z,10.70
2023-04-10T12:29:51.143Z,8.73
2023-04-10T12:32:18.079Z,11.65
2023-04-10T12:34:57.490Z,8.68
2023-04-10T12:37:47.488Z,8.95
2023-04-10T12:40:15.026Z,10.50
2023-04-10T12:42:45.072Z,10.88
2023-04-10T12:45:14.090Z,9.65
2023-04-10T12:47:48.652Z,9.30
2023-04-10T12:50:16.683Z,8.80
2023-04-10T12:52:44.937Z,9.27
2023-04-10T12:55:19.246Z,10.10
2023-04-10T12:57:47.478Z,12.50
2023-04-10T13:00:16.488Z,9.18
2023-04-10T13:02:43.646Z,8.23
2023-04-10T13:05:11.312Z,8.38
2023-04-10T13:07:38.494Z,9.57
2023-04-10T13:10:06.151Z,9.63
2023-04-10T13:12:34.883Z,9.60
2023-04-10T13:15:02.031Z,9.02
2023-04-10T13:17:29.113Z,8.75
2023-04-10T13:19:55.875Z,8.80
2023-04-10T13:22:22.786Z,9.40
2023-04-10T13:24:49.738Z,9.32
2023-04-10T13:27:16.577Z,13.02
2023-04-10T13:29:43.522Z,9.90
2023-04-10T13:32:10.972Z,8.65
2023-04-10T13:34:37.829Z,10.45
2023-04-10T13:37:04.683Z,9.68
2023-04-10T13:39:31.829Z,10.30
2023-04-10T13:41:59.184Z,10.45
2023-04-10T13:44:26.017Z,11.30
2023-04-10T13:46:53.124Z,10.82
2023-04-10T13:49:22.125Z,11.10
2023-04-10T13:51:49.097Z,10.25
2023-04-10T13:54:17.589Z,10.50
2023-04-10T13:56:47.207Z,10.00
2023-04-10T13:59:14.044Z,11.13
2023-04-10T14:01:40.997Z,12.20
2023-04-10T14:04:08.243Z,13.73
2023-04-10T14:06:35.224Z,13.45
2023-04-10T14:09:02.210Z,9.82
2023-04-10T14:11:28.960Z,10.07
2023-04-10T14:13:55.833Z,10.45
2023-04-10T14:16:22.634Z,10.05
2023-04-10T14:18:49.432Z,10.60
2023-04-10T14:21:17.331Z,12.98
2023-04-10T14:23:45.010Z,10.48
2023-04-10T14:26:11.869Z,10.45
2023-04-10T14:28:38.860Z,11.35
2023-04-10T14:31:06.508Z,10.10
2023-04-10T14:33:33.414Z,9.90
2023-04-10T14:36:00.301Z,9.90
2023-04-10T14:38:27.104Z,9.63
2023-04-10T14:40:54.072Z,9.43
2023-04-10T14:43:21.116Z,9.75
2023-04-10T14:45:47.909Z,9.82
2023-04-10T14:48:14.933Z,10.05
2023-04-10T14:50:41.876Z,12.55
2023-04-10T14:53:10.091Z,9.63
2023-04-10T14:55:37.466Z,9.10
2023-04-10T14:58:04.819Z,8.95
2023-04-10T15:00:32.546Z,8.43
2023-04-10T15:02:59.704Z,9.52
2023-04-10T15:05:27.094Z,9.98
2023-04-10T15:07:54.782Z,8.88
2023-04-10T15:10:21.788Z,8.55
2023-04-10T15:12:48.713Z,8.35
2023-04-10T15:15:15.634Z,8.18
2023-04-10T15:17:42.748Z,9.07
2023-04-10T15:20:10.350Z,9.23
2023-04-10T15:22:37.108Z,8.68
2023-04-10T15:25:04.372Z,9.77
2023-04-10T15:27:31.271Z,8.43
2023-04-10T15:29:58.382Z,9.80
2023-04-10T15:32:25.172Z,9.00
2023-04-10T15:34:52.046Z,11.57
2023-04-10T15:37:18.790Z,10.52
2023-04-10T15:39:45.827Z,7.70
2023-04-10T15:42:12.690Z,7.57
2023-04-10T15:44:39.459Z,8.35
2023-04-10T15:47:06.155Z,7.60
2023-04-10T15:49:37.842Z,7.70
2023-04-10T15:52:06.645Z,10.80
2023-04-10T15:54:34.227Z,7.95
2023-04-10T15:57:02.331Z,8.13
2023-04-10T15:59:29.451Z,8.25
2023-04-10T16:01:56.579Z,13.23
2023-04-10T16:04:23.804Z,7.68
2023-04-10T16:06:50.722Z,9.18
2023-04-10T16:11:47.994Z,12.75
2023-04-10T16:14:14.752Z,9.70
2023-04-10T16:16:41.673Z,8.93
2023-04-10T16:19:08.885Z,8.65
2023-04-10T16:21:35.842Z,8.35
2023-04-10T16:24:02.804Z,8.18
2023-04-10T16:26:29.557Z,8.60
2023-04-10T16:28:56.591Z,8.73
2023-04-10T16:31:23.758Z,8.10
2023-04-10T16:33:50.592Z,8.27
2023-04-10T16:36:17.673Z,7.72
2023-04-10T16:38:45.394Z,9.02
2023-04-10T16:41:12.720Z,8.23
2023-04-10T16:43:39.632Z,8.48
2023-04-10T16:46:08.411Z,8.43
2023-04-10T16:48:36.291Z,8.90
2023-04-10T16:51:06.460Z,7.88
2023-04-10T16:53:33.854Z,7.78
2023-04-10T16:56:02.944Z,7.75
2023-04-10T16:58:32.754Z,8.52
2023-04-10T17:00:59.782Z,11.45
2023-04-10T17:03:26.709Z,12.50
2023-04-10T17:05:53.488Z,8.93
2023-04-10T17:08:20.328Z,9.63
2023-04-10T17:10:47.061Z,8.25
2023-04-10T17:13:13.910Z,8.20
2023-04-10T17:15:40.868Z,8.85
2023-04-10T17:18:07.743Z,10.15
2023-04-10T17:20:37.461Z,8.23
2023-04-10T17:25:31.191Z,8.50
2023-04-10T17:27:58.173Z,8.00
2023-04-10T17:30:25.049Z,8.50
2023-04-10T17:32:51.972Z,9.00
2023-04-10T17:35:18.799Z,8.65
2023-04-10T17:37:45.811Z,9.02
2023-04-10T17:40:13.143Z,11.52
2023-04-10T17:42:40.221Z,11.00
2023-04-10T17:45:07.460Z,8.23
2023-04-10T17:47:35.134Z,8.93
2023-04-10T17:50:02.727Z,8.10
2023-04-10T17:52:29.540Z,8.13
2023-04-10T17:54:56.301Z,8.65
2023-04-10T17:57:23.131Z,8.77
2023-04-10T17:59:49.974Z,7.50
2023-04-10T18:02:16.768Z,8.10
2023-04-10T18:04:43.592Z,10.68
2023-04-10T18:07:10.579Z,9.18
2023-04-10T18:09:37.938Z,8.32
2023-04-10T18:12:04.784Z,10.68
2023-04-10T18:14:31.589Z,10.73
2023-04-10T18:16:58.511Z,7.60
2023-04-10T18:19:25.443Z,8.65
2023-04-10T18:21:52.487Z,8.20
2023-04-10T18:24:19.410Z,11.18
2023-04-10T18:26:46.462Z,13.38
2023-04-10T18:29:13.358Z,12.73
2023-04-10T18:31:40.123Z,13.63
2023-04-10T18:34:08.533Z,12.18
2023-04-10T18:36:35.683Z,11.17
2023-04-10T18:39:02.530Z,10.52
2023-04-10T18:41:29.489Z,10.60
2023-04-10T18:44:04.380Z,10.23
2023-04-10T18:46:33.051Z,10.13
2023-04-10T18:49:01.412Z,14.40
2023-04-10T18:51:28.501Z,11.60
2023-04-10T18:53:55.788Z,11.75
2023-04-10T18:56:23.068Z,10.50
2023-04-10T18:58:50.378Z,10.27
2023-04-10T19:01:18.072Z,11.27
2023-04-10T19:03:47.313Z,14.40
2023-04-10T19:06:17.751Z,12.75
2023-04-10T19:08:44.572Z,10.95
2023-04-10T19:11:11.597Z,11.23
2023-04-10T19:13:38.342Z,11.15
2023-04-10T19:16:05.584Z,10.50
2023-04-10T19:18:32.674Z,9.80
2023-04-10T19:20:59.523Z,10.23
2023-04-10T19:23:26.626Z,8.75
2023-04-10T19:25:54.890Z,9.23
2023-04-10T19:28:23.232Z,9.18
2023-04-10T19:30:50.526Z,9.77
2023-04-10T19:33:17.586Z,9.10
2023-04-10T19:35:44.596Z,9.38
2023-04-10T19:38:11.434Z,11.45
2023-04-10T19:40:38.617Z,11.63
2023-04-10T19:43:07.045Z,9.32
2023-04-10T19:45:39.142Z,9.90
2023-04-10T19:48:07.214Z,9.40
2023-04-10T19:50:34.068Z,10.07
2023-04-10T19:53:00.861Z,10.98
2023-04-10T19:55:27.723Z,10.48
2023-04-10T19:57:55.029Z,10.93
2023-04-10T20:00:22.231Z,10.50
2023-04-10T20:02:49.166Z,10.75
2023-04-10T20:05:16.247Z,13.20
2023-04-10T20:07:43.199Z,15.88
2023-04-10T20:10:10.160Z,13.52
2023-04-10T20:12:36.944Z,12.98
2023-04-10T20:15:04.439Z,13.40
2023-04-10T20:17:31.234Z,11.43
2023-04-10T20:19:58.098Z,11.45
2023-04-10T20:22:25.595Z,12.48
2023-04-10T20:24:52.412Z,10.82
2023-04-10T20:27:19.182Z,13.68
2023-04-10T20:29:46.201Z,11.57
2023-04-10T20:32:13.025Z,11.82
2023-04-10T20:34:39.896Z,13.88
2023-04-10T20:37:06.825Z,11.93
2023-04-10T20:39:34.857Z,12.18
2023-04-10T20:42:01.628Z,11.90
2023-04-10T20:44:28.593Z,13.32
2023-04-10T20:46:55.368Z,12.70
2023-04-10T20:49:22.831Z,12.05
2023-04-10T20:51:49.824Z,12.60
2023-04-10T20:54:19.133Z,12.77
2023-04-10T20:56:46.803Z,16.08
2023-04-10T20:59:13.676Z,12.98
2023-04-10T21:01:40.741Z,12.48
2023-04-10T21:04:07.655Z,12.98
2023-04-10T21:06:34.502Z,12.80
2023-04-10T21:09:01.644Z,11.30
2023-04-10T21:11:28.460Z,12.60
2023-04-10T21:13:55.577Z,12.25
2023-04-10T21:16:22.628Z,13.30
2023-04-10T21:18:49.524Z,15.15
2023-04-10T21:21:16.688Z,13.93
2023-04-10T21:23:43.711Z,13.23
2023-04-10T21:26:10.718Z,12.80
2023-04-10T21:28:37.555Z,13.30
2023-04-10T21:31:08.069Z,13.43
2023-04-10T21:33:34.789Z,14.57
2023-04-10T21:36:01.748Z,14.05
2023-04-10T21:38:28.897Z,13.43
2023-04-10T21:40:55.683Z,13.43
2023-04-10T21:43:22.593Z,14.68
2023-04-10T21:45:49.508Z,13.32
2023-04-10T21:48:16.526Z,14.05
2023-04-10T21:50:46.304Z,14.55
2023-04-10T21:55:39.713Z,14.07
2023-04-10T21:58:06.487Z,12.13
2023-04-10T22:00:33.753Z,13.40
2023-04-10T22:03:01.041Z,13.23
2023-04-10T22:05:28.039Z,12.98
2023-04-10T22:07:55.464Z,13.00
2023-04-10T22:10:22.245Z,13.80
2023-04-10T22:12:49.514Z,12.57
2023-04-10T22:15:17.024Z,12.95
2023-04-10T22:17:43.852Z,14.13
2023-04-10T22:20:11.300Z,13.07
2023-04-10T22:22:38.177Z,13.40
2023-04-10T22:25:05.357Z,13.27
2023-04-10T22:27:32.959Z,12.82
2023-04-10T22:30:03.917Z,11.82
2023-04-10T22:32:31.982Z,12.30
2023-04-10T22:34:59.727Z,12.13
2023-04-10T22:37:27.383Z,15.23
2023-04-10T22:39:56.441Z,12.45
2023-04-10T22:42:23.631Z,13.38
2023-04-10T22:44:50.652Z,13.88
2023-04-10T22:47:17.430Z,14.27
2023-04-10T22:49:44.178Z,13.13
2023-04-10T22:52:12.648Z,14.27
2023-04-10T22:54:39.429Z,12.05
2023-04-10T22:57:06.227Z,12.55
2023-04-10T22:59:33.044Z,12.43
2023-04-10T23:01:59.986Z,12.27
2023-04-10T23:04:26.879Z,13.05
2023-04-10T23:06:53.852Z,12.40
2023-04-10T23:09:20.843Z,12.70
2023-04-10T23:11:47.603Z,13.05
2023-04-10T23:14:14.604Z,12.77
2023-04-10T23:16:41.455Z,15.07
2023-04-10T23:19:08.308Z,13.40
2023-04-10T23:21:35.164Z,11.73
2023-04-10T23:24:01.992Z,12.02
2023-04-10T23:26:32.050Z,17.20
2023-04-10T23:28:59.005Z,13.57
2023-04-10T23:31:25.799Z,13.70
2023-04-10T23:33:52.872Z,12.73
2023-04-10T23:36:19.610Z,14.25
2023-04-10T23:38:46.382Z,13.30
2023-04-10T23:41:13.363Z,12.98
2023-04-10T23:43:40.095Z,14.30
2023-04-10T23:46:07.438Z,13.32
2023-04-10T23:48:34.455Z,14.30
2023-04-10T23:51:08.003Z,14.00
2023-04-10T23:53:35.202Z,13.10
2023-04-10T23:56:02.274Z,13.80
2023-04-10T23:58:29.234Z,13.68
